Fort Worth - NOAA's Hourly Summary for Sunday, April 16, 2017
Hour Temp
(f)
RH
(%)
Solar Rad.
(MJ/m2)
Rainfall
(in)
Wind
(mph)
4/16/2017 12:00 AM 71 73 0 0 5.71
4/16/2017 1:00 AM 71 73 0 0 6.33
4/16/2017 2:00 AM 71 73 0 0 7.27
4/16/2017 3:00 AM 70 76 0 0 4.41
4/16/2017 4:00 AM 69 80 0 0 5.04
4/16/2017 5:00 AM 68 84 0 0 5.18
4/16/2017 6:00 AM 67 87 0 0 5.43
4/16/2017 7:00 AM 68 87 0.06 0 4.97
4/16/2017 8:00 AM 69 84 0.32 0 5.84
4/16/2017 9:00 AM 71 79 0.47 0 9.27
4/16/2017 10:00 AM 73 75 0.65 0 6.87
4/16/2017 11:00 AM 75 69 1.22 0 6.21
4/16/2017 12:00 PM 76 66 1.21 0 7.21
4/16/2017 1:00 PM 76 64 1.47 0 8.48
4/16/2017 2:00 PM 78 61 1.64 0 7.73
4/16/2017 3:00 PM 77 62 1.91 0 8.15
4/16/2017 4:00 PM 79 60 1.92 0 8.73
4/16/2017 5:00 PM 78 59 1.5 0 8.18
4/16/2017 6:00 PM 77 62 0.51 0 5.23
4/16/2017 7:00 PM 76 66 0.11 0 3.37
4/16/2017 8:00 PM 74 70 0 0 5.14
4/16/2017 9:00 PM 74 72 0 0 4.15
4/16/2017 10:00 PM 73 75 0 0 3.92
4/16/2017 11:00 PM 72 79 0 0 2.25
Data Summary 73 72 12.99 0.00 6.04